17:47
Airports
Links
Donate
Help keep this website running!
PayPal
Bitcoin
METAR
LIMJ 191720Z 35008KT 320V030 CAVOK 09/00 Q1013
Current Weather Conditions at LIMJ
VFR 17:20:00 19-02-18
Altimeter:29.91 hg
Temp:9.0°c 48°f
Dew point:0.0°c 32°f
Wind:8 knots, 9.2 mph, 4 m/s, from 350°
Visibility:6.21 statute miles
(CAVOK)
Past METAR reports
VFR 16:50:00 19-02-18
Altimeter:29.91 hg
Temp:9.0°c 48°f
Dew point:0.0°c 32°f
Wind:9 knots, 10.4 mph, 5 m/s, from 360°
Visibility:6.21 statute miles
(CAVOK)
LIMJ 191650Z 36009G19KT CAVOK 09/00 Q1013
VFR 16:20:00 19-02-18
Altimeter:29.91 hg
Temp:9.0°c 48°f
Dew point:1.0°c 34°f
Wind:12 knots, 13.8 mph, 6 m/s, from 350°
Visibility:6.21 statute miles
(CAVOK)
LIMJ 191620Z 35012G22KT 320V020 CAVOK 09/01 Q1013
VFR 15:50:00 19-02-18
Altimeter:29.91 hg
Temp:10.0°c 50°f
Dew point:0.0°c 32°f
Wind:11 knots, 12.7 mph, 6 m/s, from 350°
Visibility:6.21 statute miles
(CAVOK)
LIMJ 191550Z 35011G23KT 320V040 CAVOK 10/00 Q1013
VFR 15:20:00 19-02-18
Altimeter:29.94 hg
Temp:10.0°c 50°f
Dew point:0.0°c 32°f
Wind:11 knots, 12.7 mph, 6 m/s, from 350°
Visibility:6.21 statute miles
(CAVOK)
LIMJ 191520Z 35011G22KT 300V040 CAVOK 10/M00 Q1014
VFR 14:50:00 19-02-18
Altimeter:29.94 hg
Temp:10.0°c 50°f
Dew point:0.0°c 32°f
Wind:11 knots, 12.7 mph, 6 m/s, from 360°
Visibility:6.21 statute miles
(CAVOK)
LIMJ 191450Z 36011G21KT 310V040 CAVOK 10/M00 Q1014
VFR 14:20:00 19-02-18
Altimeter:29.94 hg
Temp:10.0°c 50°f
Dew point:-1.0°c 30°f
Wind:13 knots, 15 mph, 7 m/s, from 350°
Visibility:6.21 statute miles
(CAVOK)
LIMJ 191420Z 35013G24KT 320V030 CAVOK 10/M01 Q1014
TAF
TAF LIMJ 191700Z 1918/2018 34008KT 9999 SCT050
Forecast at LIMJ
18:00 19-02-18 to 18:00 20-02-18
Wind:8 Knots from 340°
Visibility:6.21 statute miles
5000SCT Scattered